createdAt,value
2022-12-04T00:00:37.032Z,-1.09
2022-12-04T00:01:37.917Z,-1.09
2022-12-04T00:02:38.842Z,-1.13
2022-12-04T00:03:39.731Z,-1.13
2022-12-04T00:04:40.727Z,-1.15
2022-12-04T00:05:41.598Z,-1.16
2022-12-04T00:06:42.498Z,-1.20
2022-12-04T00:07:43.437Z,-1.19
2022-12-04T00:08:44.295Z,-1.19
2022-12-04T00:09:45.183Z,-1.19
2022-12-04T00:10:46.069Z,-1.20
2022-12-04T00:11:46.947Z,-1.22
2022-12-04T00:12:47.827Z,-1.23
2022-12-04T00:13:48.716Z,-1.22
2022-12-04T00:15:23.868Z,-1.22
2022-12-04T00:15:51.422Z,-1.22
2022-12-04T00:16:51.364Z,-1.20
2022-12-04T00:17:51.774Z,-1.23
2022-12-04T00:18:52.671Z,-1.22
2022-12-04T00:19:53.834Z,-1.23
2022-12-04T00:20:54.231Z,-1.20
2022-12-04T00:21:55.128Z,-1.22
2022-12-04T00:22:55.987Z,-1.20
2022-12-04T00:23:56.899Z,-1.23
2022-12-04T00:24:57.764Z,-1.23
2022-12-04T00:25:58.647Z,-1.25
2022-12-04T00:26:59.528Z,-1.25
2022-12-04T00:28:00.418Z,-1.27
2022-12-04T00:29:01.307Z,-1.27
2022-12-04T00:30:02.207Z,-1.27
2022-12-04T00:31:03.179Z,-1.28
2022-12-04T00:32:04.119Z,-1.31
2022-12-04T00:33:04.978Z,-1.30
2022-12-04T00:34:08.308Z,-1.33
2022-12-04T00:35:06.779Z,-1.33
2022-12-04T00:36:07.659Z,-1.30
2022-12-04T00:37:08.561Z,-1.30
2022-12-04T00:38:09.431Z,-1.30
2022-12-04T00:39:10.333Z,-1.30
2022-12-04T00:40:11.209Z,-1.30
2022-12-04T00:41:12.097Z,-1.31
2022-12-04T00:42:12.978Z,-1.30
2022-12-04T00:43:13.865Z,-1.31
2022-12-04T00:44:14.763Z,-1.30
2022-12-04T00:45:15.636Z,-1.33
2022-12-04T00:46:16.622Z,-1.34
2022-12-04T00:47:17.476Z,-1.37
2022-12-04T00:48:18.371Z,-1.38
2022-12-04T00:49:19.257Z,-1.37
2022-12-04T00:50:20.142Z,-1.38
2022-12-04T00:51:21.027Z,-1.38
2022-12-04T00:52:21.929Z,-1.35
2022-12-04T00:53:22.793Z,-1.40
2022-12-04T00:54:23.688Z,-1.35
2022-12-04T00:55:27.040Z,-1.34
2022-12-04T00:56:25.549Z,-1.38
2022-12-04T00:57:26.433Z,-1.34
2022-12-04T00:58:27.324Z,-1.35
2022-12-04T00:59:28.212Z,-1.37
2022-12-04T01:00:29.093Z,-1.37
2022-12-04T01:01:30.064Z,-1.34
2022-12-04T01:02:31.039Z,-1.34
2022-12-04T01:03:31.965Z,-1.35
2022-12-04T01:04:32.814Z,-1.38
2022-12-04T01:05:33.688Z,-1.37
2022-12-04T01:06:34.580Z,-1.37
2022-12-04T01:07:40.771Z,-1.38
2022-12-04T01:08:37.221Z,-1.40
2022-12-04T01:09:37.123Z,-1.43
2022-12-04T01:10:38.002Z,-1.41
2022-12-04T01:11:38.893Z,-1.43
2022-12-04T01:12:39.871Z,-1.41
2022-12-04T01:13:40.685Z,-1.43
2022-12-04T01:14:41.578Z,-1.41
2022-12-04T01:15:42.448Z,-1.43
2022-12-04T01:16:43.411Z,-1.45
2022-12-04T01:17:44.281Z,-1.43
2022-12-04T01:18:45.164Z,-1.46
2022-12-04T01:19:46.063Z,-1.46
2022-12-04T01:20:46.952Z,-1.45
2022-12-04T01:21:47.838Z,-1.45
2022-12-04T01:22:48.721Z,-1.43
2022-12-04T01:23:49.600Z,-1.41
2022-12-04T01:24:50.492Z,-1.45
2022-12-04T01:25:51.380Z,-1.43
2022-12-04T01:26:52.259Z,-1.45
2022-12-04T01:27:53.168Z,-1.46
2022-12-04T01:28:54.024Z,-1.46
2022-12-04T01:29:55.206Z,-1.43
2022-12-04T01:30:55.680Z,-1.45
2022-12-04T01:31:56.651Z,-1.45
2022-12-04T01:32:57.528Z,-1.43
2022-12-04T01:33:58.414Z,-1.45
2022-12-04T01:34:59.307Z,-1.43
2022-12-04T01:36:00.188Z,-1.40
2022-12-04T01:37:01.066Z,-1.37
2022-12-04T01:38:01.955Z,-1.38
2022-12-04T01:39:02.836Z,-1.37
2022-12-04T01:40:03.722Z,-1.35
2022-12-04T01:41:04.606Z,-1.37
2022-12-04T01:42:05.488Z,-1.35
2022-12-04T01:43:06.414Z,-1.34
2022-12-04T01:44:07.250Z,-1.33
2022-12-04T01:45:08.147Z,-1.31
2022-12-04T01:46:09.177Z,-1.30
2022-12-04T01:47:09.536Z,-1.30
2022-12-04T01:48:10.432Z,-1.27
2022-12-04T01:49:11.300Z,-1.30
2022-12-04T01:50:12.205Z,-1.27
2022-12-04T01:51:13.095Z,-1.28
2022-12-04T01:52:13.969Z,-1.27
2022-12-04T01:53:14.844Z,-1.28
2022-12-04T01:54:15.741Z,-1.31
2022-12-04T01:55:16.628Z,-1.31
2022-12-04T01:56:17.517Z,-1.28
2022-12-04T01:57:18.427Z,-1.30
2022-12-04T01:58:19.303Z,-1.33
2022-12-04T01:59:20.172Z,-1.34
2022-12-04T02:00:21.063Z,-1.34
2022-12-04T02:01:22.056Z,-1.34
2022-12-04T02:02:22.993Z,-1.35
2022-12-04T02:03:23.891Z,-1.38
2022-12-04T02:04:24.783Z,-1.40
2022-12-04T02:05:25.671Z,-1.40
2022-12-04T02:06:26.549Z,-1.43
2022-12-04T02:07:27.542Z,-1.46
2022-12-04T02:08:28.403Z,-1.51
2022-12-04T02:09:29.283Z,-1.52
2022-12-04T02:10:30.186Z,-1.56
2022-12-04T02:11:31.066Z,-1.54
2022-12-04T02:12:31.990Z,-1.56
2022-12-04T02:13:32.864Z,-1.56
2022-12-04T02:14:33.718Z,-1.56
2022-12-04T02:15:34.617Z,-1.54
2022-12-04T02:16:35.569Z,-1.55
2022-12-04T02:17:36.416Z,-1.55
2022-12-04T02:18:37.293Z,-1.56
2022-12-04T02:19:38.181Z,-1.56
2022-12-04T02:20:39.088Z,-1.56
2022-12-04T02:21:39.960Z,-1.58
2022-12-04T02:22:40.841Z,-1.59
2022-12-04T02:23:41.720Z,-1.59
2022-12-04T02:24:48.236Z,-1.58
2022-12-04T02:25:44.378Z,-1.61
2022-12-04T02:26:44.267Z,-1.59
2022-12-04T02:27:45.149Z,-1.56
2022-12-04T02:28:46.052Z,-1.58
2022-12-04T02:29:46.901Z,-1.58
2022-12-04T02:30:47.857Z,-1.61
2022-12-04T02:31:48.711Z,-1.66
2022-12-04T02:32:49.593Z,-1.64
2022-12-04T02:33:50.481Z,-1.66
2022-12-04T02:34:51.364Z,-1.64
2022-12-04T02:35:52.252Z,-1.61
2022-12-04T02:36:53.150Z,-1.64
2022-12-04T02:37:54.026Z,-1.66
2022-12-04T02:38:54.905Z,-1.62
2022-12-04T02:39:56.034Z,-1.64
2022-12-04T02:40:56.604Z,-1.66
2022-12-04T02:41:57.484Z,-1.66
2022-12-04T02:42:58.362Z,-1.70
2022-12-04T02:43:59.259Z,-1.67
2022-12-04T02:45:00.124Z,-1.70
2022-12-04T02:46:01.170Z,-1.72
2022-12-04T02:47:01.517Z,-1.70
2022-12-04T02:48:02.402Z,-1.73
2022-12-04T02:49:03.287Z,-1.74
2022-12-04T02:50:04.173Z,-1.74
2022-12-04T02:51:05.064Z,-1.76
2022-12-04T02:52:05.954Z,-1.80
2022-12-04T02:53:06.826Z,-1.77
2022-12-04T02:54:07.710Z,-1.76
2022-12-04T02:55:09.011Z,-1.79
2022-12-04T02:56:09.349Z,-1.77
2022-12-04T02:57:10.266Z,-1.74
2022-12-04T02:58:11.145Z,-1.73
2022-12-04T02:59:12.050Z,-1.72
2022-12-04T03:00:12.912Z,-1.69
2022-12-04T03:01:13.875Z,-1.67
2022-12-04T03:02:14.790Z,-1.62
2022-12-04T03:03:15.670Z,-1.64
2022-12-04T03:04:16.546Z,-1.64
2022-12-04T03:05:17.441Z,-1.62
2022-12-04T03:06:18.325Z,-1.62
2022-12-04T03:07:19.211Z,-1.62
2022-12-04T03:08:20.179Z,-1.64
2022-12-04T03:09:21.038Z,-1.64
2022-12-04T03:10:21.930Z,-1.67
2022-12-04T03:11:22.815Z,-1.66
2022-12-04T03:12:23.709Z,-1.66
2022-12-04T03:13:24.586Z,-1.69
2022-12-04T03:14:25.489Z,-1.67
2022-12-04T03:15:26.370Z,-1.67
2022-12-04T03:16:27.305Z,-1.69
2022-12-04T03:17:28.159Z,-1.69
2022-12-04T03:18:29.045Z,-1.73
2022-12-04T03:19:29.927Z,-1.66
2022-12-04T03:20:30.812Z,-1.61
2022-12-04T03:21:31.706Z,-1.56
2022-12-04T03:22:32.598Z,-1.54
2022-12-04T03:23:33.473Z,-1.49
2022-12-04T03:24:34.371Z,-1.48
2022-12-04T03:25:35.240Z,-1.41
2022-12-04T03:26:36.133Z,-1.38
2022-12-04T03:27:37.022Z,-1.37
2022-12-04T03:28:37.903Z,-1.35
2022-12-04T03:29:38.809Z,-1.38
2022-12-04T03:30:39.705Z,-1.38
2022-12-04T03:31:40.573Z,-1.43
2022-12-04T03:32:41.457Z,-1.51
2022-12-04T03:33:42.344Z,-1.56
2022-12-04T03:34:43.224Z,-1.62
2022-12-04T03:35:44.109Z,-1.67
2022-12-04T03:36:45.008Z,-1.73
2022-12-04T03:37:45.899Z,-1.73
2022-12-04T03:38:46.777Z,-1.76
2022-12-04T03:39:47.656Z,-1.76
2022-12-04T03:40:48.551Z,-1.74
2022-12-04T03:41:50.121Z,-1.74
2022-12-04T03:42:50.075Z,-1.74
2022-12-04T03:43:50.974Z,-1.73
2022-12-04T03:44:51.888Z,-1.72
2022-12-04T03:45:52.851Z,-1.69
2022-12-04T03:46:53.717Z,-1.72
2022-12-04T03:47:54.595Z,-1.67
2022-12-04T03:48:55.480Z,-1.62
2022-12-04T03:49:56.630Z,-1.58
2022-12-04T03:50:57.107Z,-1.48
2022-12-04T03:51:57.992Z,-1.48
2022-12-04T03:52:58.876Z,-1.45
2022-12-04T03:53:59.764Z,-1.43
2022-12-04T03:55:00.640Z,-1.41
2022-12-04T03:56:01.517Z,-1.41
2022-12-04T03:57:02.406Z,-1.43
2022-12-04T03:58:03.310Z,-1.46
2022-12-04T03:59:04.184Z,-1.48
2022-12-04T04:00:05.091Z,-1.51
2022-12-04T04:01:05.998Z,-1.51
2022-12-04T04:02:06.992Z,-1.52
2022-12-04T04:03:07.527Z,-1.51
2022-12-04T04:04:07.902Z,-1.51
2022-12-04T04:05:08.793Z,-1.54
2022-12-04T04:06:09.675Z,-1.54
2022-12-04T04:07:10.553Z,-1.56
2022-12-04T04:08:11.502Z,-1.55
2022-12-04T04:09:12.352Z,-1.55
2022-12-04T04:10:13.231Z,-1.58
2022-12-04T04:11:14.140Z,-1.56
2022-12-04T04:12:14.998Z,-1.61
2022-12-04T04:13:15.882Z,-1.64
2022-12-04T04:14:16.767Z,-1.62
2022-12-04T04:15:17.703Z,-1.66
2022-12-04T04:16:18.614Z,-1.66
2022-12-04T04:17:19.466Z,-1.67
2022-12-04T04:18:20.359Z,-1.62
2022-12-04T04:19:21.237Z,-1.62
2022-12-04T04:20:22.126Z,-1.64
2022-12-04T04:21:23.024Z,-1.67
2022-12-04T04:22:23.895Z,-1.66
2022-12-04T04:23:24.779Z,-1.66
2022-12-04T04:24:25.660Z,-1.67
2022-12-04T04:25:26.541Z,-1.69
2022-12-04T04:26:27.429Z,-1.62
2022-12-04T04:27:28.310Z,-1.59
2022-12-04T04:28:29.199Z,-1.58
2022-12-04T04:29:30.078Z,-1.56
2022-12-04T04:30:30.977Z,-1.52
2022-12-04T04:31:31.925Z,-1.56
2022-12-04T04:32:32.754Z,-1.56
2022-12-04T04:33:33.638Z,-1.58
2022-12-04T04:34:34.519Z,-1.59
2022-12-04T04:35:35.399Z,-1.62
2022-12-04T04:36:36.302Z,-1.64
2022-12-04T04:37:37.196Z,-1.64
2022-12-04T04:38:38.073Z,-1.64
2022-12-04T04:39:38.958Z,-1.64
2022-12-04T04:40:39.845Z,-1.66
2022-12-04T04:41:40.730Z,-1.67
2022-12-04T04:42:41.623Z,-1.66
2022-12-04T04:43:42.507Z,-1.66
2022-12-04T04:44:43.373Z,-1.67
2022-12-04T04:45:44.282Z,-1.70
2022-12-04T04:46:45.204Z,-1.69
2022-12-04T04:47:46.047Z,-1.70
2022-12-04T04:48:46.935Z,-1.72
2022-12-04T04:49:47.815Z,-1.74
2022-12-04T04:50:48.700Z,-1.74
2022-12-04T04:51:49.593Z,-1.76
2022-12-04T04:52:50.475Z,-1.74
2022-12-04T04:53:51.356Z,-1.77
2022-12-04T04:54:52.231Z,-1.74
2022-12-04T04:55:53.113Z,-1.76
2022-12-04T04:56:54.007Z,-1.73
2022-12-04T04:57:54.890Z,-1.74
2022-12-04T04:58:55.767Z,-1.74
2022-12-04T04:59:57.018Z,-1.73
2022-12-04T05:00:57.633Z,-1.73
2022-12-04T05:01:58.556Z,-1.73
2022-12-04T05:02:59.494Z,-1.70
2022-12-04T05:04:00.347Z,-1.70
2022-12-04T05:05:01.232Z,-1.72
2022-12-04T05:06:02.113Z,-1.70
2022-12-04T05:07:03.014Z,-1.70
2022-12-04T05:08:03.994Z,-1.72
2022-12-04T05:09:04.834Z,-1.70
2022-12-04T05:10:05.719Z,-1.70
2022-12-04T05:11:06.607Z,-1.70
2022-12-04T05:12:07.493Z,-1.70
2022-12-04T05:13:08.368Z,-1.69
2022-12-04T05:14:09.255Z,-1.69
2022-12-04T05:15:10.143Z,-1.69
2022-12-04T05:16:11.265Z,-1.70
2022-12-04T05:17:12.953Z,-1.69
2022-12-04T05:18:12.432Z,-1.70
2022-12-04T05:19:13.308Z,-1.72
2022-12-04T05:20:14.196Z,-1.70
2022-12-04T05:21:15.080Z,-1.73
2022-12-04T05:22:15.971Z,-1.70
2022-12-04T05:23:16.863Z,-1.70
2022-12-04T05:24:17.741Z,-1.70
2022-12-04T05:25:18.622Z,-1.69
2022-12-04T05:26:19.509Z,-1.69
2022-12-04T05:27:20.397Z,-1.67
2022-12-04T05:28:21.283Z,-1.66
2022-12-04T05:29:22.165Z,-1.62
2022-12-04T05:30:23.046Z,-1.59
2022-12-04T05:31:24.044Z,-1.61
2022-12-04T05:32:24.893Z,-1.56
2022-12-04T05:33:25.759Z,-1.56
2022-12-04T05:34:26.648Z,-1.55
2022-12-04T05:35:27.529Z,-1.58
2022-12-04T05:36:28.416Z,-1.58
2022-12-04T05:37:29.319Z,-1.56
2022-12-04T05:38:30.201Z,-1.56
2022-12-04T05:39:31.091Z,-1.55
2022-12-04T05:40:31.971Z,-1.55
2022-12-04T05:41:32.853Z,-1.56
2022-12-04T05:42:33.772Z,-1.54
2022-12-04T05:43:34.651Z,-1.56
2022-12-04T05:44:35.537Z,-1.58
2022-12-04T05:45:36.415Z,-1.59
2022-12-04T05:46:37.436Z,-1.62
2022-12-04T05:47:38.307Z,-1.61
2022-12-04T05:48:39.188Z,-1.59
2022-12-04T05:49:40.063Z,-1.59
2022-12-04T05:50:40.946Z,-1.56
2022-12-04T05:51:41.842Z,-1.56
2022-12-04T05:52:42.733Z,-1.58
2022-12-04T05:53:43.613Z,-1.55
2022-12-04T05:54:44.498Z,-1.55
2022-12-04T05:55:45.383Z,-1.55
2022-12-04T05:56:46.268Z,-1.55
2022-12-04T05:57:47.175Z,-1.58
2022-12-04T05:58:48.052Z,-1.56
2022-12-04T05:59:48.933Z,-1.58
2022-12-04T06:00:49.810Z,-1.56
2022-12-04T06:01:50.810Z,-1.58
2022-12-04T06:02:51.718Z,-1.56
2022-12-04T06:03:52.588Z,-1.58
2022-12-04T06:04:53.447Z,-1.58
2022-12-04T06:05:54.344Z,-1.58
2022-12-04T06:06:55.235Z,-1.58
2022-12-04T06:07:56.172Z,-1.59
2022-12-04T06:08:57.003Z,-1.59
2022-12-04T06:09:58.287Z,-1.62
2022-12-04T06:10:58.850Z,-1.62
2022-12-04T06:11:59.750Z,-1.64
2022-12-04T06:13:00.643Z,-1.64
2022-12-04T06:14:01.536Z,-1.62
2022-12-04T06:15:02.415Z,-1.66
2022-12-04T06:16:03.357Z,-1.59
2022-12-04T06:17:04.217Z,-1.55
2022-12-04T06:18:05.099Z,-1.51
2022-12-04T06:19:05.974Z,-1.49
2022-12-04T06:20:11.417Z,-1.46
2022-12-04T06:21:08.635Z,-1.43
2022-12-04T06:22:08.522Z,-1.38
2022-12-04T06:23:09.407Z,-1.40
2022-12-04T06:24:10.305Z,-1.40
2022-12-04T06:25:11.183Z,-1.40
2022-12-04T06:26:12.059Z,-1.38
2022-12-04T06:27:28.942Z,-1.43
2022-12-04T06:28:14.669Z,-1.43
2022-12-04T06:29:14.561Z,-1.46
2022-12-04T06:30:15.398Z,-1.45
2022-12-04T06:31:16.331Z,-1.43
2022-12-04T06:32:21.435Z,-1.40
2022-12-04T06:33:18.945Z,-1.37
2022-12-04T06:34:18.821Z,-1.38
2022-12-04T06:35:19.706Z,-1.37
2022-12-04T06:36:20.533Z,-1.37
2022-12-04T06:37:21.370Z,-1.37
2022-12-04T06:38:22.238Z,-1.38
2022-12-04T06:39:23.079Z,-1.41
2022-12-04T06:40:23.900Z,-1.45
2022-12-04T06:41:24.728Z,-1.48
2022-12-04T06:42:25.555Z,-1.46
2022-12-04T06:43:26.396Z,-1.46
2022-12-04T06:44:27.229Z,-1.43
2022-12-04T06:45:28.161Z,-1.43
2022-12-04T06:46:28.994Z,-1.40
2022-12-04T06:47:29.792Z,-1.41
2022-12-04T06:48:30.624Z,-1.45
2022-12-04T06:49:31.446Z,-1.41
2022-12-04T06:50:32.288Z,-1.41
2022-12-04T06:51:33.120Z,-1.43
2022-12-04T06:52:33.926Z,-1.41
2022-12-04T06:53:34.765Z,-1.45
2022-12-04T06:54:35.593Z,-1.48
2022-12-04T06:55:36.430Z,-1.48
2022-12-04T06:56:37.257Z,-1.46
2022-12-04T06:57:38.093Z,-1.51
2022-12-04T06:58:38.924Z,-1.51
2022-12-04T06:59:39.751Z,-1.46
2022-12-04T07:00:40.638Z,-1.43
2022-12-04T07:01:41.485Z,-1.45
2022-12-04T07:02:42.439Z,-1.48
2022-12-04T07:03:47.837Z,-1.45
2022-12-04T07:04:44.951Z,-1.45
2022-12-04T07:05:44.783Z,-1.41
2022-12-04T07:06:45.619Z,-1.41
2022-12-04T07:07:46.483Z,-1.38
2022-12-04T07:08:47.306Z,-1.35
2022-12-04T07:09:48.132Z,-1.33
2022-12-04T07:10:50.355Z,-1.30
2022-12-04T07:11:49.777Z,-1.25
2022-12-04T07:12:50.608Z,-1.20
2022-12-04T07:13:51.447Z,-1.19
2022-12-04T07:14:52.290Z,-1.15
2022-12-04T07:15:53.107Z,-1.10
2022-12-04T07:16:54.003Z,-1.04
2022-12-04T07:17:54.830Z,-0.97
2022-12-04T07:18:55.647Z,-0.91
2022-12-04T07:19:56.745Z,-0.86
2022-12-04T07:20:57.179Z,-0.80
2022-12-04T07:21:58.009Z,-0.83
2022-12-04T07:23:03.982Z,-0.83
2022-12-04T07:24:00.562Z,-0.89
2022-12-04T07:25:00.396Z,-0.86
2022-12-04T07:26:01.243Z,-0.91
2022-12-04T07:27:02.076Z,-0.92
2022-12-04T07:28:02.885Z,-0.95
2022-12-04T07:29:03.727Z,-0.94
2022-12-04T07:30:04.553Z,-0.92
2022-12-04T07:31:05.411Z,-0.94
2022-12-04T07:32:06.316Z,-0.92
2022-12-04T07:33:07.114Z,-0.89
2022-12-04T07:34:07.942Z,-0.86
2022-12-04T07:35:08.764Z,-0.85
2022-12-04T07:36:09.580Z,-0.80
2022-12-04T07:37:10.425Z,-0.82
2022-12-04T07:38:11.244Z,-0.80
2022-12-04T07:39:12.091Z,-0.80
2022-12-04T07:40:12.921Z,-0.83
2022-12-04T07:41:13.760Z,-0.85
2022-12-04T07:42:16.438Z,-0.83
2022-12-04T07:43:16.288Z,-0.80
2022-12-04T07:44:16.119Z,-0.82
2022-12-04T07:45:16.949Z,-0.80
2022-12-04T07:46:17.866Z,-0.79
2022-12-04T07:47:18.694Z,-0.86
2022-12-04T07:48:19.531Z,-0.85
2022-12-04T07:49:20.403Z,-0.86
2022-12-04T07:50:21.172Z,-0.86
2022-12-04T07:51:22.019Z,-0.86
2022-12-04T07:52:22.851Z,-0.89
2022-12-04T07:53:23.681Z,-0.89
2022-12-04T07:54:24.512Z,-0.89
2022-12-04T07:55:25.345Z,-0.89
2022-12-04T07:56:26.173Z,-0.89
2022-12-04T07:57:27.003Z,-0.86
2022-12-04T07:58:27.838Z,-0.86
2022-12-04T07:59:28.670Z,-0.86
2022-12-04T08:00:29.535Z,-0.85
2022-12-04T08:01:30.515Z,-0.82
2022-12-04T08:02:31.311Z,-0.83
2022-12-04T08:03:32.165Z,-0.80
2022-12-04T08:04:33.106Z,-0.82
2022-12-04T08:05:33.932Z,-0.79
2022-12-04T08:06:34.754Z,-0.78
2022-12-04T08:07:35.620Z,-0.78
2022-12-04T08:08:36.421Z,-0.76
2022-12-04T08:09:37.261Z,-0.73
2022-12-04T08:10:38.092Z,-0.75
2022-12-04T08:11:38.910Z,-0.73
2022-12-04T08:12:39.741Z,-0.75
2022-12-04T08:13:40.570Z,-0.73
2022-12-04T08:14:41.416Z,-0.72
2022-12-04T08:15:42.241Z,-0.69
2022-12-04T08:16:43.898Z,-0.67
2022-12-04T08:17:43.916Z,-0.65
2022-12-04T08:18:44.763Z,-0.62
2022-12-04T08:19:45.579Z,-0.62
2022-12-04T08:20:46.409Z,-0.60
2022-12-04T08:21:47.232Z,-0.57
2022-12-04T08:22:48.051Z,-0.57
2022-12-04T08:23:48.889Z,-0.52
2022-12-04T08:24:49.727Z,-0.52
2022-12-04T08:25:50.553Z,-0.49
2022-12-04T08:26:51.382Z,-0.49
2022-12-04T08:27:52.211Z,-0.47
2022-12-04T08:28:53.032Z,-0.44
2022-12-04T08:29:54.112Z,-0.44
2022-12-04T08:30:54.657Z,-0.44
2022-12-04T08:31:55.460Z,-0.44
2022-12-04T08:32:56.291Z,-0.42
2022-12-04T08:33:57.138Z,-0.39
2022-12-04T08:34:57.944Z,-0.39
2022-12-04T08:35:58.776Z,-0.37
2022-12-04T08:36:59.594Z,-0.37
2022-12-04T08:38:00.426Z,-0.36
2022-12-04T08:39:01.259Z,-0.33
2022-12-04T08:40:02.099Z,-0.31
2022-12-04T08:41:02.945Z,-0.28
2022-12-04T08:42:03.766Z,-0.26
2022-12-04T08:43:04.590Z,-0.21
2022-12-04T08:44:05.431Z,-0.19
2022-12-04T08:45:06.269Z,-0.18
2022-12-04T08:46:07.170Z,-0.14
2022-12-04T08:47:07.968Z,-0.11
2022-12-04T08:48:08.800Z,-0.08
2022-12-04T08:49:09.655Z,-0.05
2022-12-04T08:50:10.469Z,-0.04
2022-12-04T08:51:11.290Z,0.00
2022-12-04T08:52:12.120Z,0.02
2022-12-04T08:53:12.948Z,0.03
2022-12-04T08:54:13.779Z,0.08
2022-12-04T08:55:14.618Z,0.13
2022-12-04T08:56:15.438Z,0.14
2022-12-04T08:57:16.276Z,0.17
2022-12-04T08:58:17.110Z,0.20
2022-12-04T08:59:17.934Z,0.21
2022-12-04T09:00:18.770Z,0.23
2022-12-04T09:01:19.684Z,0.24
2022-12-04T09:02:20.496Z,0.28
2022-12-04T09:03:26.071Z,0.29
2022-12-04T09:04:23.198Z,0.32
2022-12-04T09:05:23.142Z,0.33
2022-12-04T09:06:23.945Z,0.36
2022-12-04T09:07:24.740Z,0.39
2022-12-04T09:08:25.568Z,0.46
2022-12-04T09:09:26.416Z,0.46
2022-12-04T09:10:27.368Z,0.49
2022-12-04T09:11:28.177Z,0.51
2022-12-04T09:12:28.996Z,0.55
2022-12-04T09:13:29.835Z,0.60
2022-12-04T09:14:30.661Z,0.61
2022-12-04T09:15:31.573Z,0.68
2022-12-04T09:16:32.485Z,0.70
2022-12-04T09:17:33.285Z,0.73
2022-12-04T09:18:34.143Z,0.76
2022-12-04T09:19:34.974Z,0.79
2022-12-04T09:20:35.784Z,0.83
2022-12-04T09:21:36.601Z,0.87
2022-12-04T09:23:02.107Z,0.90
2022-12-04T09:23:39.150Z,0.94
2022-12-04T09:24:38.978Z,0.98
2022-12-04T09:25:39.828Z,1.06
2022-12-04T09:26:40.638Z,1.12
2022-12-04T09:27:41.465Z,1.18
2022-12-04T09:28:42.292Z,1.23
2022-12-04T09:29:43.122Z,1.30
2022-12-04T09:30:44.028Z,1.32
2022-12-04T09:31:44.853Z,1.37
2022-12-04T09:32:45.643Z,1.42
2022-12-04T09:33:46.478Z,1.45
2022-12-04T09:34:51.340Z,1.48
2022-12-04T09:35:49.030Z,1.47
2022-12-04T09:36:48.885Z,1.50
2022-12-04T09:37:49.692Z,1.54
2022-12-04T09:38:50.522Z,1.59
2022-12-04T09:39:51.356Z,1.58
2022-12-04T09:40:52.189Z,1.62
2022-12-04T09:41:53.023Z,1.65
2022-12-04T09:42:53.871Z,1.65
2022-12-04T09:43:54.685Z,1.69
2022-12-04T09:44:55.514Z,1.70
2022-12-04T09:45:56.391Z,1.72
2022-12-04T09:46:57.274Z,1.76
2022-12-04T09:47:58.073Z,1.73
2022-12-04T09:48:58.927Z,1.73
2022-12-04T09:49:59.769Z,1.73
2022-12-04T09:51:00.595Z,1.72
2022-12-04T09:52:01.423Z,1.73
2022-12-04T09:53:02.253Z,1.76
2022-12-04T09:54:03.109Z,1.79
2022-12-04T09:55:03.915Z,1.81
2022-12-04T09:56:04.753Z,1.81
2022-12-04T09:57:05.587Z,1.86
2022-12-04T09:58:06.426Z,1.87
2022-12-04T09:59:07.275Z,1.86
2022-12-04T10:00:08.081Z,1.90
2022-12-04T10:01:08.919Z,1.95
2022-12-04T10:02:09.791Z,1.98
2022-12-04T10:03:10.782Z,1.99
2022-12-04T10:04:11.132Z,2.03
2022-12-04T10:05:11.947Z,2.07
2022-12-04T10:06:12.793Z,2.06
2022-12-04T10:07:13.584Z,2.09
2022-12-04T10:08:14.472Z,2.09
2022-12-04T10:09:15.296Z,2.09
2022-12-04T10:10:16.112Z,2.10
2022-12-04T10:11:16.950Z,2.12
2022-12-04T10:12:17.780Z,2.14
2022-12-04T10:13:18.623Z,2.12
2022-12-04T10:14:19.438Z,2.17
2022-12-04T10:15:20.273Z,2.18
2022-12-04T10:16:21.230Z,2.20
2022-12-04T10:17:22.050Z,2.24
2022-12-04T10:18:22.879Z,2.25
2022-12-04T10:19:23.738Z,2.25
2022-12-04T10:20:24.560Z,2.25
2022-12-04T10:21:25.382Z,2.27
2022-12-04T10:22:26.208Z,2.25
2022-12-04T10:23:27.047Z,2.30
2022-12-04T10:24:27.869Z,2.30
2022-12-04T10:25:28.704Z,2.34
2022-12-04T10:26:29.571Z,2.35
2022-12-04T10:27:30.385Z,2.38
2022-12-04T10:28:31.211Z,2.39
2022-12-04T10:29:32.053Z,2.38
2022-12-04T10:30:32.870Z,2.42
2022-12-04T10:31:33.901Z,2.42
2022-12-04T10:32:34.233Z,2.46
2022-12-04T10:33:35.093Z,2.45
2022-12-04T10:34:37.318Z,2.45
2022-12-04T10:35:36.765Z,2.52
2022-12-04T10:36:37.584Z,2.57
2022-12-04T10:37:38.412Z,2.59
2022-12-04T10:38:39.246Z,2.61
2022-12-04T10:39:40.071Z,2.66
2022-12-04T10:40:40.899Z,2.69
2022-12-04T10:41:41.738Z,2.71
2022-12-04T10:42:42.569Z,2.77
2022-12-04T10:43:43.399Z,2.79
2022-12-04T10:44:44.249Z,2.82
2022-12-04T10:45:45.067Z,2.85
2022-12-04T10:46:46.911Z,2.90
2022-12-04T10:47:46.809Z,2.93
2022-12-04T10:48:47.638Z,2.92
2022-12-04T10:49:48.465Z,2.92
2022-12-04T10:50:49.310Z,2.89
2022-12-04T10:51:50.127Z,2.92
2022-12-04T10:52:50.963Z,2.89
2022-12-04T10:53:51.790Z,2.89
2022-12-04T10:54:52.618Z,2.87
2022-12-04T10:55:53.449Z,2.85
2022-12-04T10:56:54.311Z,2.87
2022-12-04T10:57:55.136Z,2.82
2022-12-04T10:58:55.959Z,2.82
2022-12-04T10:59:57.170Z,2.84
2022-12-04T11:00:57.705Z,2.82
2022-12-04T11:02:03.120Z,2.84
2022-12-04T11:03:00.351Z,2.89
2022-12-04T11:04:00.173Z,2.89
2022-12-04T11:05:01.000Z,2.87
2022-12-04T11:06:01.854Z,2.90
2022-12-04T11:07:02.679Z,2.92
2022-12-04T11:08:03.546Z,2.93
2022-12-04T11:09:04.340Z,2.93
2022-12-04T11:10:05.166Z,2.95
2022-12-04T11:11:05.995Z,2.97
2022-12-04T11:12:06.839Z,3.02
2022-12-04T11:13:07.666Z,3.06
2022-12-04T11:14:08.514Z,3.08
2022-12-04T11:15:09.329Z,3.13
2022-12-04T11:16:10.223Z,3.14
2022-12-04T11:17:11.015Z,3.20
2022-12-04T11:18:11.847Z,3.23
2022-12-04T11:19:12.680Z,3.28
2022-12-04T11:20:13.530Z,3.33
2022-12-04T11:21:14.369Z,3.40
2022-12-04T11:22:15.189Z,3.47
2022-12-04T11:23:16.015Z,3.54
2022-12-04T11:24:16.843Z,3.60
2022-12-04T11:25:17.702Z,3.60
2022-12-04T11:26:18.526Z,3.68
2022-12-04T11:27:19.361Z,3.73
2022-12-04T11:28:40.744Z,3.79
2022-12-04T11:29:21.907Z,3.87
2022-12-04T11:30:21.736Z,3.93
2022-12-04T11:31:22.602Z,3.98
2022-12-04T11:32:23.423Z,4.04
2022-12-04T11:33:24.245Z,4.06
2022-12-04T11:34:25.072Z,4.09
2022-12-04T11:35:25.901Z,4.12
2022-12-04T11:36:26.772Z,4.15
2022-12-04T11:37:27.569Z,4.18
2022-12-04T11:38:28.414Z,4.20
2022-12-04T11:39:29.229Z,4.22
2022-12-04T11:40:30.061Z,4.24
2022-12-04T11:41:30.913Z,4.30
2022-12-04T11:42:31.741Z,4.37
2022-12-04T11:43:32.556Z,4.45
2022-12-04T11:44:33.395Z,4.51
2022-12-04T11:45:34.216Z,4.55
2022-12-04T11:46:35.144Z,4.60
2022-12-04T11:47:35.996Z,4.63
2022-12-04T11:48:36.858Z,4.67
2022-12-04T11:49:43.585Z,4.72
2022-12-04T11:50:39.376Z,4.73
2022-12-04T11:51:39.226Z,4.77
2022-12-04T11:52:40.047Z,4.77
2022-12-04T11:53:40.877Z,4.85
2022-12-04T11:54:41.732Z,4.96
2022-12-04T11:55:42.535Z,5.06
2022-12-04T11:56:43.369Z,5.15
2022-12-04T11:57:44.204Z,5.27
2022-12-04T11:58:45.028Z,5.30
2022-12-04T11:59:45.852Z,5.33
2022-12-04T12:00:46.691Z,5.38
2022-12-04T12:01:47.608Z,5.46
2022-12-04T12:02:48.610Z,5.49
2022-12-04T12:03:48.984Z,5.56
2022-12-04T12:04:49.824Z,5.61
2022-12-04T12:05:50.631Z,5.67
2022-12-04T12:06:51.483Z,5.72
2022-12-04T12:07:55.288Z,5.75
2022-12-04T12:08:54.016Z,5.82
2022-12-04T12:09:54.065Z,5.85
2022-12-04T12:10:54.536Z,5.85
2022-12-04T12:11:55.364Z,5.93
2022-12-04T12:12:56.201Z,5.97
2022-12-04T12:13:57.027Z,6.01
2022-12-04T12:14:58.228Z,6.06
2022-12-04T12:15:58.702Z,6.08
2022-12-04T12:16:59.524Z,6.12
2022-12-04T12:18:00.362Z,6.19
2022-12-04T12:19:01.181Z,6.22
2022-12-04T12:20:02.036Z,6.27
2022-12-04T12:21:02.842Z,6.28
2022-12-04T12:22:05.544Z,6.34
2022-12-04T12:23:04.639Z,6.37
2022-12-04T12:24:05.468Z,6.43
2022-12-04T12:25:06.292Z,6.49
2022-12-04T12:26:07.119Z,6.55
2022-12-04T12:27:07.940Z,6.59
2022-12-04T12:28:08.817Z,6.61
2022-12-04T12:29:09.631Z,6.69
2022-12-04T12:30:10.459Z,6.73
2022-12-04T12:31:11.280Z,6.73
2022-12-04T12:32:12.193Z,6.77
2022-12-04T12:33:12.998Z,6.79
2022-12-04T12:34:13.846Z,6.80
2022-12-04T12:35:14.662Z,6.85
2022-12-04T12:36:15.491Z,6.87
2022-12-04T12:37:16.344Z,6.88
2022-12-04T12:38:17.161Z,6.91
2022-12-04T12:39:17.990Z,6.95
2022-12-04T12:40:18.844Z,6.95
2022-12-04T12:41:19.652Z,6.97
2022-12-04T12:42:20.483Z,7.02
2022-12-04T12:43:21.364Z,7.05
2022-12-04T12:44:22.139Z,7.05
2022-12-04T12:45:22.960Z,7.07
2022-12-04T12:46:23.870Z,7.03
2022-12-04T12:47:24.673Z,7.03
2022-12-04T12:48:25.515Z,7.06
2022-12-04T12:49:26.334Z,7.06
2022-12-04T12:50:27.163Z,7.06
2022-12-04T12:51:30.328Z,7.07
2022-12-04T12:52:28.685Z,7.06
2022-12-04T12:53:29.511Z,7.06
2022-12-04T12:54:30.338Z,7.09
2022-12-04T12:55:31.159Z,7.09
2022-12-04T12:56:31.994Z,7.09
2022-12-04T12:57:32.808Z,7.12
2022-12-04T12:58:33.682Z,7.13
2022-12-04T12:59:34.491Z,7.16
2022-12-04T13:00:35.320Z,7.17
2022-12-04T13:01:36.223Z,7.21
2022-12-04T13:02:37.096Z,7.21
2022-12-04T13:03:37.931Z,7.24
2022-12-04T13:04:38.764Z,7.28
2022-12-04T13:05:39.592Z,7.30
2022-12-04T13:06:40.411Z,7.30
2022-12-04T13:07:41.297Z,7.28
2022-12-04T13:08:44.948Z,7.28
2022-12-04T13:09:43.833Z,7.31
2022-12-04T13:10:43.661Z,7.30
2022-12-04T13:11:44.485Z,7.34
2022-12-04T13:12:45.330Z,7.37